RYR52W LATI-LROP
Flight info
| Callsign | RYR52W |
|---|---|
| Flight time | 1h 4m |
| Altitude | 35000 |
| Route | ODRAS DCT MAVAR DCT BUREK DCT SKJ DCT VELBA DCT SOMOV/N0329F100 Z937 SORDU |
| Aircraft | B738/M-SDE2E3FGHIRWXY/LB1 |
Departure
| Time | 2026-05-06 15:02 |
|---|---|
| Airport | Tirana International Airport Mother Teresa (LATI) |
Arrival
| Time | 2026-05-06 16:06 |
|---|---|
| Airport | Bucharest Henri Coandă International Airport (LROP) |
| Time | Latitude | Longitude | Altitude | Speed | Heading |
|---|---|---|---|---|---|
| 2026-05-06 14:23 | 41.42225 | 19.71482 | 114 ft | 0 kts | 264° |
| 2026-05-06 14:51 | 41.42227 | 19.71500 | 113 ft | 4 kts | 253° |
| 2026-05-06 14:51 | 41.42239 | 19.71528 | 112 ft | 4 kts | 212° |
| 2026-05-06 14:51 | 41.42263 | 19.71539 | 112 ft | 4 kts | 178° |
| 2026-05-06 14:51 | 41.42271 | 19.71539 | 112 ft | 0 kts | 174° |
| 2026-05-06 14:55 | 41.42265 | 19.71539 | 116 ft | 3 kts | 174° |
| 2026-05-06 14:56 | 41.42204 | 19.71547 | 113 ft | 12 kts | 175° |
| 2026-05-06 14:56 | 41.42118 | 19.71553 | 116 ft | 12 kts | 175° |
| 2026-05-06 14:56 | 41.42035 | 19.71572 | 115 ft | 12 kts | 168° |
| 2026-05-06 14:56 | 41.41952 | 19.71582 | 116 ft | 12 kts | 176° |
| 2026-05-06 14:57 | 41.41859 | 19.71591 | 119 ft | 15 kts | 175° |
| 2026-05-06 14:57 | 41.41748 | 19.71607 | 118 ft | 17 kts | 173° |
| 2026-05-06 14:57 | 41.41621 | 19.71624 | 118 ft | 20 kts | 175° |
| 2026-05-06 14:57 | 41.41479 | 19.71643 | 120 ft | 22 kts | 174° |
| 2026-05-06 14:58 | 41.41330 | 19.71663 | 122 ft | 21 kts | 174° |
| 2026-05-06 14:58 | 41.41186 | 19.71681 | 121 ft | 21 kts | 175° |
| 2026-05-06 14:58 | 41.41046 | 19.71700 | 122 ft | 20 kts | 174° |
| 2026-05-06 14:58 | 41.40911 | 19.71725 | 124 ft | 19 kts | 169° |
| 2026-05-06 14:59 | 41.40781 | 19.71756 | 124 ft | 19 kts | 171° |
| 2026-05-06 14:59 | 41.40654 | 19.71774 | 125 ft | 18 kts | 175° |
| 2026-05-06 14:59 | 41.40531 | 19.71787 | 123 ft | 17 kts | 175° |
| 2026-05-06 14:59 | 41.40413 | 19.71810 | 125 ft | 17 kts | 160° |
| 2026-05-06 15:00 | 41.40318 | 19.71894 | 127 ft | 16 kts | 143° |
| 2026-05-06 15:00 | 41.40259 | 19.71958 | 129 ft | 9 kts | 133° |
| 2026-05-06 15:00 | 41.40238 | 19.72037 | 127 ft | 9 kts | 87° |
| 2026-05-06 15:00 | 41.40247 | 19.72120 | 126 ft | 9 kts | 82° |
| 2026-05-06 15:01 | 41.40267 | 19.72196 | 127 ft | 9 kts | 41° |
| 2026-05-06 15:01 | 41.40338 | 19.72207 | 126 ft | 16 kts | 355° |
| 2026-05-06 15:01 | 41.40678 | 19.72163 | 127 ft | 83 kts | 354° |
| 2026-05-06 15:01 | 41.41454 | 19.72061 | 117 ft | 141 kts | 354° |
| 2026-05-06 15:02 | 41.42548 | 19.71919 | 414 ft | 163 kts | 355° |
| 2026-05-06 15:02 | 41.43692 | 19.71801 | 1068 ft | 173 kts | 353° |
| 2026-05-06 15:02 | 41.44977 | 19.71622 | 1502 ft | 191 kts | 353° |
| 2026-05-06 15:02 | 41.46348 | 19.71428 | 1964 ft | 211 kts | 354° |
| 2026-05-06 15:03 | 41.47885 | 19.71216 | 2176 ft | 233 kts | 355° |
| 2026-05-06 15:03 | 41.49532 | 19.70992 | 2559 ft | 245 kts | 355° |
| 2026-05-06 15:03 | 41.51296 | 19.70754 | 2842 ft | 264 kts | 355° |
| 2026-05-06 15:03 | 41.53166 | 19.70503 | 3478 ft | 274 kts | 354° |
| 2026-05-06 15:04 | 41.55078 | 19.70244 | 4311 ft | 278 kts | 354° |
| 2026-05-06 15:04 | 41.57016 | 19.69986 | 5080 ft | 282 kts | 353° |
| 2026-05-06 15:04 | 41.58979 | 19.69725 | 5893 ft | 282 kts | 352° |
| 2026-05-06 15:04 | 41.60912 | 19.69360 | 6733 ft | 280 kts | 340° |
| 2026-05-06 15:05 | 41.62531 | 19.68018 | 7502 ft | 275 kts | 309° |
| 2026-05-06 15:05 | 41.63476 | 19.65873 | 8286 ft | 272 kts | 284° |
| 2026-05-06 15:05 | 41.63655 | 19.63374 | 9124 ft | 273 kts | 261° |
| 2026-05-06 15:05 | 41.63026 | 19.60991 | 9959 ft | 276 kts | 237° |
| 2026-05-06 15:06 | 41.61663 | 19.59136 | 10489 ft | 293 kts | 214° |
| 2026-05-06 15:06 | 41.59694 | 19.58069 | 10671 ft | 322 kts | 193° |
| 2026-05-06 15:06 | 41.57399 | 19.58020 | 11106 ft | 341 kts | 172° |
| 2026-05-06 15:06 | 41.55186 | 19.59251 | 11788 ft | 352 kts | 147° |
| 2026-05-06 15:07 | 41.53234 | 19.61240 | 12630 ft | 354 kts | 143° |
| 2026-05-06 15:07 | 41.51936 | 19.62570 | 13133 ft | 357 kts | 145° |
| 2026-05-06 15:07 | 41.49898 | 19.64520 | 13836 ft | 364 kts | 147° |
| 2026-05-06 15:07 | 41.47785 | 19.66420 | 14535 ft | 368 kts | 148° |
| 2026-05-06 15:08 | 41.45669 | 19.68373 | 15269 ft | 373 kts | 141° |
| 2026-05-06 15:08 | 41.44055 | 19.71107 | 15963 ft | 382 kts | 117° |
| 2026-05-06 15:08 | 41.43331 | 19.74527 | 16678 ft | 389 kts | 95° |
| 2026-05-06 15:08 | 41.43549 | 19.78135 | 17023 ft | 394 kts | 73° |
| 2026-05-06 15:09 | 41.44550 | 19.81523 | 17146 ft | 395 kts | 65° |
| 2026-05-06 15:09 | 41.45693 | 19.84879 | 17779 ft | 399 kts | 65° |
| 2026-05-06 15:09 | 41.46817 | 19.88266 | 18518 ft | 401 kts | 65° |
| 2026-05-06 15:09 | 41.47922 | 19.91706 | 19138 ft | 404 kts | 66° |
| 2026-05-06 15:10 | 41.49016 | 19.95177 | 19709 ft | 409 kts | 66° |
| 2026-05-06 15:10 | 41.50122 | 19.98699 | 20237 ft | 414 kts | 66° |
| 2026-05-06 15:10 | 41.51244 | 20.02268 | 20784 ft | 419 kts | 66° |
| 2026-05-06 15:10 | 41.52375 | 20.05882 | 21306 ft | 423 kts | 66° |
| 2026-05-06 15:11 | 41.53512 | 20.09531 | 21786 ft | 429 kts | 66° |
| 2026-05-06 15:11 | 41.54670 | 20.13231 | 22293 ft | 434 kts | 65° |
| 2026-05-06 15:11 | 41.55835 | 20.16901 | 22863 ft | 436 kts | 65° |
| 2026-05-06 15:11 | 41.57019 | 20.20643 | 23428 ft | 440 kts | 65° |
| 2026-05-06 15:12 | 41.58201 | 20.24437 | 23861 ft | 445 kts | 65° |
| 2026-05-06 15:12 | 41.59386 | 20.28270 | 24312 ft | 448 kts | 65° |
| 2026-05-06 15:12 | 41.60579 | 20.32137 | 24826 ft | 451 kts | 65° |
| 2026-05-06 15:12 | 41.61777 | 20.36025 | 25268 ft | 454 kts | 65° |
| 2026-05-06 15:13 | 41.62982 | 20.39933 | 25681 ft | 457 kts | 65° |
| 2026-05-06 15:13 | 41.64195 | 20.43873 | 26133 ft | 459 kts | 65° |
| 2026-05-06 15:13 | 41.65417 | 20.47842 | 26577 ft | 462 kts | 65° |
| 2026-05-06 15:13 | 41.66640 | 20.51818 | 27087 ft | 463 kts | 65° |
| 2026-05-06 15:14 | 41.67793 | 20.55850 | 27525 ft | 466 kts | 68° |
| 2026-05-06 15:14 | 41.68838 | 20.59971 | 27910 ft | 470 kts | 70° |
| 2026-05-06 15:14 | 41.69839 | 20.64155 | 28272 ft | 473 kts | 70° |
| 2026-05-06 15:14 | 41.70833 | 20.68371 | 28646 ft | 477 kts | 70° |
| 2026-05-06 15:15 | 41.71838 | 20.72612 | 29054 ft | 479 kts | 70° |
| 2026-05-06 15:15 | 41.72858 | 20.76867 | 29449 ft | 481 kts | 70° |
| 2026-05-06 15:15 | 41.73890 | 20.81140 | 29835 ft | 483 kts | 70° |
| 2026-05-06 15:15 | 41.74919 | 20.85380 | 30161 ft | 486 kts | 70° |
| 2026-05-06 15:16 | 41.75982 | 20.89752 | 30438 ft | 489 kts | 70° |
| 2026-05-06 15:16 | 41.77033 | 20.94081 | 30782 ft | 489 kts | 70° |
| 2026-05-06 15:16 | 41.78065 | 20.98345 | 31237 ft | 487 kts | 70° |
| 2026-05-06 15:16 | 41.79106 | 21.02659 | 31742 ft | 484 kts | 70° |
| 2026-05-06 15:17 | 41.80138 | 21.06943 | 32212 ft | 482 kts | 70° |
| 2026-05-06 15:17 | 41.81166 | 21.11215 | 32620 ft | 481 kts | 70° |
| 2026-05-06 15:17 | 41.82189 | 21.15474 | 33136 ft | 479 kts | 70° |
| 2026-05-06 15:17 | 41.83201 | 21.19700 | 33704 ft | 475 kts | 70° |
| 2026-05-06 15:18 | 41.84209 | 21.23912 | 34099 ft | 474 kts | 70° |
| 2026-05-06 15:18 | 41.85218 | 21.28135 | 34388 ft | 474 kts | 70° |
| 2026-05-06 15:18 | 41.86222 | 21.32344 | 34677 ft | 474 kts | 70° |
| 2026-05-06 15:18 | 41.87225 | 21.36559 | 34982 ft | 474 kts | 70° |
| 2026-05-06 15:19 | 41.88233 | 21.40795 | 34968 ft | 479 kts | 70° |
| 2026-05-06 15:19 | 41.90251 | 21.49315 | 34975 ft | 476 kts | 70° |
| 2026-05-06 15:20 | 41.92233 | 21.57711 | 34963 ft | 470 kts | 70° |
| 2026-05-06 15:20 | 41.93721 | 21.66286 | 34972 ft | 475 kts | 85° |
| 2026-05-06 15:21 | 41.93977 | 21.75094 | 34974 ft | 476 kts | 87° |
| 2026-05-06 15:21 | 41.94158 | 21.84005 | 34969 ft | 477 kts | 87° |
| 2026-05-06 15:22 | 41.94381 | 21.92931 | 34977 ft | 478 kts | 86° |
| 2026-05-06 15:22 | 41.94628 | 22.01860 | 34979 ft | 479 kts | 86° |
| 2026-05-06 15:23 | 41.94876 | 22.10797 | 34977 ft | 479 kts | 86° |
| 2026-05-06 15:23 | 41.95114 | 22.19738 | 35002 ft | 478 kts | 86° |
| 2026-05-06 15:24 | 41.95344 | 22.28662 | 34998 ft | 478 kts | 86° |
| 2026-05-06 15:24 | 41.95566 | 22.37570 | 34995 ft | 477 kts | 86° |
| 2026-05-06 15:25 | 41.95781 | 22.46474 | 35004 ft | 476 kts | 86° |
| 2026-05-06 15:25 | 41.95988 | 22.55351 | 35022 ft | 475 kts | 86° |
| 2026-05-06 15:26 | 41.96189 | 22.64222 | 35010 ft | 475 kts | 86° |
| 2026-05-06 15:26 | 41.96382 | 22.73018 | 35017 ft | 474 kts | 86° |
| 2026-05-06 15:27 | 41.96579 | 22.81857 | 35016 ft | 472 kts | 83° |
| 2026-05-06 15:27 | 41.97197 | 22.86136 | 34993 ft | 464 kts | 65° |
| 2026-05-06 15:27 | 41.98683 | 22.89943 | 35020 ft | 455 kts | 50° |
| 2026-05-06 15:27 | 42.00780 | 22.93055 | 35014 ft | 446 kts | 36° |
| 2026-05-06 15:28 | 42.03190 | 22.95678 | 35020 ft | 445 kts | 34° |
| 2026-05-06 15:28 | 42.08062 | 23.00875 | 35012 ft | 447 kts | 34° |
| 2026-05-06 15:29 | 42.12915 | 23.06115 | 35020 ft | 448 kts | 34° |
| 2026-05-06 15:29 | 42.17724 | 23.11385 | 35031 ft | 449 kts | 35° |
| 2026-05-06 15:30 | 42.22571 | 23.16735 | 35028 ft | 451 kts | 35° |
| 2026-05-06 15:30 | 42.27422 | 23.22106 | 35025 ft | 452 kts | 35° |
| 2026-05-06 15:31 | 42.32285 | 23.27499 | 35020 ft | 452 kts | 35° |
| 2026-05-06 15:31 | 42.37137 | 23.32890 | 35013 ft | 451 kts | 35° |
| 2026-05-06 15:32 | 42.44383 | 23.40962 | 35004 ft | 449 kts | 35° |
| 2026-05-06 15:32 | 42.49194 | 23.46334 | 35026 ft | 447 kts | 35° |
| 2026-05-06 15:33 | 42.53994 | 23.51704 | 35006 ft | 447 kts | 35° |
| 2026-05-06 15:33 | 42.58784 | 23.57075 | 35008 ft | 445 kts | 35° |
| 2026-05-06 15:34 | 42.63504 | 23.62377 | 35008 ft | 445 kts | 35° |
| 2026-05-06 15:34 | 42.68267 | 23.67740 | 35009 ft | 444 kts | 35° |
| 2026-05-06 15:35 | 42.73034 | 23.73118 | 35003 ft | 444 kts | 35° |
| 2026-05-06 15:35 | 42.77785 | 23.78488 | 35000 ft | 444 kts | 35° |
| 2026-05-06 15:36 | 42.82537 | 23.83871 | 34998 ft | 444 kts | 35° |
| 2026-05-06 15:36 | 42.87290 | 23.89266 | 35000 ft | 445 kts | 35° |
| 2026-05-06 15:37 | 42.92019 | 23.94645 | 34996 ft | 445 kts | 35° |
| 2026-05-06 15:37 | 42.96778 | 24.00069 | 34981 ft | 446 kts | 35° |
| 2026-05-06 15:38 | 43.01532 | 24.05500 | 34994 ft | 445 kts | 35° |
| 2026-05-06 15:38 | 43.06285 | 24.10940 | 34972 ft | 445 kts | 35° |
| 2026-05-06 15:39 | 43.11017 | 24.16369 | 34973 ft | 444 kts | 35° |
| 2026-05-06 15:39 | 43.15754 | 24.21814 | 34981 ft | 444 kts | 35° |
| 2026-05-06 15:40 | 43.20498 | 24.27276 | 34474 ft | 449 kts | 35° |
| 2026-05-06 15:40 | 43.22882 | 24.30026 | 33877 ft | 447 kts | 35° |
| 2026-05-06 15:40 | 43.25267 | 24.32781 | 33157 ft | 448 kts | 35° |
| 2026-05-06 15:41 | 43.27651 | 24.35538 | 32453 ft | 448 kts | 35° |
| 2026-05-06 15:41 | 43.29987 | 24.38243 | 31968 ft | 444 kts | 35° |
| 2026-05-06 15:41 | 43.32336 | 24.40967 | 31475 ft | 440 kts | 35° |
| 2026-05-06 15:41 | 43.34663 | 24.43668 | 30978 ft | 436 kts | 35° |
| 2026-05-06 15:42 | 43.36974 | 24.46353 | 30495 ft | 433 kts | 35° |
| 2026-05-06 15:42 | 43.39267 | 24.49018 | 30012 ft | 429 kts | 35° |
| 2026-05-06 15:42 | 43.41536 | 24.51656 | 29450 ft | 426 kts | 36° |
| 2026-05-06 15:42 | 43.43791 | 24.54282 | 28916 ft | 423 kts | 36° |
| 2026-05-06 15:43 | 43.46030 | 24.56891 | 28384 ft | 420 kts | 36° |
| 2026-05-06 15:43 | 43.48245 | 24.59476 | 27878 ft | 415 kts | 36° |
| 2026-05-06 15:43 | 43.50431 | 24.62030 | 27387 ft | 411 kts | 36° |
| 2026-05-06 15:43 | 43.52608 | 24.64575 | 26903 ft | 409 kts | 36° |
| 2026-05-06 15:44 | 43.54777 | 24.67112 | 26442 ft | 409 kts | 37° |
| 2026-05-06 15:44 | 43.56947 | 24.69652 | 25988 ft | 408 kts | 37° |
| 2026-05-06 15:44 | 43.59099 | 24.72175 | 25552 ft | 405 kts | 37° |
| 2026-05-06 15:44 | 43.61238 | 24.74687 | 25126 ft | 402 kts | 37° |
| 2026-05-06 15:45 | 43.63357 | 24.77178 | 24713 ft | 399 kts | 37° |
| 2026-05-06 15:45 | 43.65438 | 24.79624 | 24311 ft | 397 kts | 38° |
| 2026-05-06 15:45 | 43.67533 | 24.82090 | 23903 ft | 394 kts | 38° |
| 2026-05-06 15:45 | 43.69604 | 24.84553 | 23503 ft | 392 kts | 40° |
| 2026-05-06 15:46 | 43.71473 | 24.87294 | 23030 ft | 391 kts | 48° |
| 2026-05-06 15:46 | 43.73166 | 24.90213 | 22590 ft | 387 kts | 49° |
| 2026-05-06 15:46 | 43.74814 | 24.93127 | 22133 ft | 382 kts | 50° |
| 2026-05-06 15:46 | 43.76439 | 24.96004 | 21701 ft | 378 kts | 50° |
| 2026-05-06 15:47 | 43.78059 | 24.98858 | 21269 ft | 374 kts | 50° |
| 2026-05-06 15:47 | 43.79661 | 25.01662 | 20844 ft | 370 kts | 50° |
| 2026-05-06 15:47 | 43.81259 | 25.04448 | 20421 ft | 367 kts | 50° |
| 2026-05-06 15:47 | 43.82840 | 25.07198 | 20011 ft | 364 kts | 50° |
| 2026-05-06 15:48 | 43.84411 | 25.09929 | 19603 ft | 361 kts | 50° |
| 2026-05-06 15:48 | 43.85965 | 25.12631 | 19212 ft | 358 kts | 50° |
| 2026-05-06 15:48 | 43.87511 | 25.15321 | 18820 ft | 355 kts | 50° |
| 2026-05-06 15:48 | 43.89048 | 25.17997 | 18440 ft | 353 kts | 50° |
| 2026-05-06 15:49 | 43.90574 | 25.20657 | 18020 ft | 350 kts | 51° |
| 2026-05-06 15:49 | 43.92085 | 25.23294 | 17577 ft | 348 kts | 51° |
| 2026-05-06 15:49 | 43.93573 | 25.25892 | 17163 ft | 346 kts | 51° |
| 2026-05-06 15:49 | 43.95059 | 25.28491 | 16744 ft | 344 kts | 50° |
| 2026-05-06 15:50 | 43.96543 | 25.31087 | 16336 ft | 342 kts | 50° |
| 2026-05-06 15:50 | 43.98016 | 25.33668 | 15933 ft | 340 kts | 50° |
| 2026-05-06 15:50 | 43.99482 | 25.36236 | 15536 ft | 338 kts | 50° |
| 2026-05-06 15:50 | 44.00938 | 25.38789 | 15148 ft | 336 kts | 50° |
| 2026-05-06 15:51 | 44.02385 | 25.41330 | 14760 ft | 335 kts | 50° |
| 2026-05-06 15:51 | 44.03899 | 25.43768 | 14379 ft | 332 kts | 39° |
| 2026-05-06 15:51 | 44.05887 | 25.45342 | 13993 ft | 328 kts | 18° |
| 2026-05-06 15:51 | 44.08074 | 25.46204 | 13616 ft | 326 kts | 13° |
| 2026-05-06 15:52 | 44.10258 | 25.46960 | 13206 ft | 321 kts | 13° |
| 2026-05-06 15:52 | 44.12412 | 25.47699 | 12791 ft | 317 kts | 13° |
| 2026-05-06 15:52 | 44.14561 | 25.48449 | 12369 ft | 320 kts | 13° |
| 2026-05-06 15:52 | 44.16729 | 25.49224 | 11912 ft | 322 kts | 13° |
| 2026-05-06 15:53 | 44.18901 | 25.50010 | 11462 ft | 322 kts | 14° |
| 2026-05-06 15:53 | 44.21034 | 25.50788 | 11022 ft | 318 kts | 14° |
| 2026-05-06 15:53 | 44.22469 | 25.51312 | 10714 ft | 313 kts | 14° |
| 2026-05-06 15:53 | 44.25267 | 25.51799 | 10120 ft | 303 kts | 354° |
| 2026-05-06 15:54 | 44.27330 | 25.51419 | 9731 ft | 295 kts | 352° |
| 2026-05-06 15:54 | 44.29345 | 25.51061 | 9305 ft | 289 kts | 353° |
| 2026-05-06 15:54 | 44.31319 | 25.50735 | 8889 ft | 283 kts | 353° |
| 2026-05-06 15:54 | 44.33260 | 25.50424 | 8475 ft | 279 kts | 353° |
| 2026-05-06 15:55 | 44.34564 | 25.50217 | 8206 ft | 279 kts | 353° |
| 2026-05-06 15:55 | 44.36498 | 25.49911 | 7818 ft | 281 kts | 353° |
| 2026-05-06 15:55 | 44.38443 | 25.49604 | 7450 ft | 282 kts | 352° |
| 2026-05-06 15:55 | 44.40392 | 25.49295 | 7084 ft | 282 kts | 352° |
| 2026-05-06 15:56 | 44.42349 | 25.48986 | 6725 ft | 283 kts | 353° |
| 2026-05-06 15:56 | 44.44268 | 25.48682 | 6363 ft | 279 kts | 352° |
| 2026-05-06 15:56 | 44.46180 | 25.48379 | 5981 ft | 273 kts | 352° |
| 2026-05-06 15:56 | 44.48054 | 25.48093 | 5625 ft | 268 kts | 355° |
| 2026-05-06 15:57 | 44.49862 | 25.48509 | 5255 ft | 264 kts | 25° |
| 2026-05-06 15:57 | 44.51254 | 25.50054 | 4954 ft | 252 kts | 52° |
| 2026-05-06 15:57 | 44.52055 | 25.52155 | 4614 ft | 239 kts | 74° |
| 2026-05-06 15:57 | 44.52314 | 25.54395 | 4272 ft | 227 kts | 84° |
| 2026-05-06 15:58 | 44.52486 | 25.56558 | 3941 ft | 219 kts | 85° |
| 2026-05-06 15:58 | 44.52648 | 25.58632 | 3640 ft | 210 kts | 85° |
| 2026-05-06 15:58 | 44.52804 | 25.60640 | 3330 ft | 204 kts | 86° |
| 2026-05-06 15:58 | 44.52957 | 25.62581 | 3047 ft | 196 kts | 86° |
| 2026-05-06 15:59 | 44.53105 | 25.64457 | 2741 ft | 192 kts | 86° |
| 2026-05-06 15:59 | 44.53250 | 25.66294 | 2531 ft | 185 kts | 85° |
| 2026-05-06 15:59 | 44.53394 | 25.68123 | 2516 ft | 190 kts | 85° |
| 2026-05-06 15:59 | 44.53539 | 25.69947 | 2494 ft | 186 kts | 85° |
| 2026-05-06 16:00 | 44.53745 | 25.71713 | 2483 ft | 186 kts | 79° |
| 2026-05-06 16:00 | 44.54064 | 25.73476 | 2504 ft | 187 kts | 78° |
| 2026-05-06 16:00 | 44.54390 | 25.75250 | 2491 ft | 187 kts | 78° |
| 2026-05-06 16:00 | 44.54711 | 25.77025 | 2511 ft | 189 kts | 78° |
| 2026-05-06 16:01 | 44.55033 | 25.78820 | 2513 ft | 190 kts | 78° |
| 2026-05-06 16:01 | 44.55354 | 25.80628 | 2491 ft | 190 kts | 78° |
| 2026-05-06 16:01 | 44.55616 | 25.82423 | 2495 ft | 185 kts | 83° |
| 2026-05-06 16:01 | 44.55788 | 25.84148 | 2477 ft | 172 kts | 85° |
| 2026-05-06 16:02 | 44.55928 | 25.85762 | 2482 ft | 164 kts | 86° |
| 2026-05-06 16:02 | 44.56056 | 25.87328 | 2472 ft | 156 kts | 86° |
| 2026-05-06 16:02 | 44.56185 | 25.88769 | 2475 ft | 144 kts | 85° |
| 2026-05-06 16:02 | 44.56303 | 25.90182 | 2517 ft | 149 kts | 86° |
| 2026-05-06 16:03 | 44.56413 | 25.91611 | 2515 ft | 147 kts | 88° |
| 2026-05-06 16:03 | 44.56522 | 25.93065 | 2417 ft | 151 kts | 88° |
| 2026-05-06 16:03 | 44.56629 | 25.94513 | 2223 ft | 150 kts | 88° |
| 2026-05-06 16:03 | 44.56736 | 25.95955 | 2032 ft | 148 kts | 87° |
| 2026-05-06 16:04 | 44.56841 | 25.97377 | 1846 ft | 146 kts | 87° |
| 2026-05-06 16:04 | 44.56945 | 25.98791 | 1659 ft | 146 kts | 87° |
| 2026-05-06 16:04 | 44.57049 | 26.00202 | 1445 ft | 144 kts | 86° |
| 2026-05-06 16:04 | 44.57154 | 26.01606 | 1282 ft | 149 kts | 87° |
| 2026-05-06 16:05 | 44.57262 | 26.03056 | 1079 ft | 148 kts | 85° |
| 2026-05-06 16:05 | 44.57362 | 26.04474 | 928 ft | 147 kts | 85° |
| 2026-05-06 16:05 | 44.57478 | 26.05882 | 824 ft | 145 kts | 84° |
| 2026-05-06 16:05 | 44.57588 | 26.07302 | 576 ft | 147 kts | 86° |
| 2026-05-06 16:06 | 44.57686 | 26.08720 | 355 ft | 143 kts | 85° |
| 2026-05-06 16:06 | 44.57780 | 26.10005 | 321 ft | 112 kts | 84° |
| 2026-05-06 16:06 | 44.57838 | 26.10789 | 322 ft | 49 kts | 84° |
| 2026-05-06 16:06 | 44.57863 | 26.11102 | 321 ft | 28 kts | 84° |
| 2026-05-06 16:07 | 44.57883 | 26.11359 | 322 ft | 26 kts | 84° |
| 2026-05-06 16:07 | 44.57904 | 26.11619 | 323 ft | 29 kts | 84° |
| 2026-05-06 16:07 | 44.57926 | 26.11932 | 322 ft | 35 kts | 84° |
| 2026-05-06 16:07 | 44.57954 | 26.12296 | 321 ft | 40 kts | 83° |
| 2026-05-06 16:08 | 44.57975 | 26.12564 | 322 ft | 23 kts | 84° |
| 2026-05-06 16:08 | 44.57985 | 26.12717 | 321 ft | 10 kts | 94° |
| 2026-05-06 16:08 | 44.57951 | 26.12792 | 321 ft | 9 kts | 141° |
| 2026-05-06 16:08 | 44.57899 | 26.12844 | 321 ft | 9 kts | 145° |
| 2026-05-06 16:09 | 44.57841 | 26.12862 | 321 ft | 9 kts | 201° |
| 2026-05-06 16:09 | 44.57818 | 26.12790 | 321 ft | 9 kts | 264° |
| 2026-05-06 16:09 | 44.57811 | 26.12708 | 320 ft | 9 kts | 263° |
| 2026-05-06 16:09 | 44.57800 | 26.12584 | 321 ft | 18 kts | 264° |
| 2026-05-06 16:10 | 44.57783 | 26.12358 | 321 ft | 27 kts | 264° |
| 2026-05-06 16:10 | 44.57764 | 26.12093 | 321 ft | 27 kts | 264° |
| 2026-05-06 16:10 | 44.57745 | 26.11843 | 321 ft | 25 kts | 263° |
| 2026-05-06 16:10 | 44.57726 | 26.11610 | 320 ft | 23 kts | 264° |
| 2026-05-06 16:11 | 44.57711 | 26.11389 | 319 ft | 22 kts | 264° |
| 2026-05-06 16:11 | 44.57694 | 26.11175 | 321 ft | 22 kts | 264° |
| 2026-05-06 16:11 | 44.57680 | 26.10965 | 321 ft | 22 kts | 264° |
| 2026-05-06 16:11 | 44.57662 | 26.10738 | 321 ft | 25 kts | 264° |
| 2026-05-06 16:12 | 44.57643 | 26.10490 | 321 ft | 27 kts | 264° |
| 2026-05-06 16:12 | 44.57624 | 26.10235 | 320 ft | 25 kts | 264° |
| 2026-05-06 16:12 | 44.57607 | 26.09998 | 321 ft | 24 kts | 264° |
| 2026-05-06 16:12 | 44.57589 | 26.09775 | 321 ft | 23 kts | 264° |
| 2026-05-06 16:13 | 44.57573 | 26.09562 | 321 ft | 22 kts | 264° |
| 2026-05-06 16:13 | 44.57558 | 26.09352 | 322 ft | 21 kts | 264° |
| 2026-05-06 16:13 | 44.57541 | 26.09138 | 322 ft | 22 kts | 264° |
| 2026-05-06 16:13 | 44.57525 | 26.08924 | 322 ft | 22 kts | 263° |
| 2026-05-06 16:14 | 44.57509 | 26.08716 | 322 ft | 21 kts | 264° |
| 2026-05-06 16:14 | 44.57501 | 26.08601 | 322 ft | 8 kts | 264° |
| 2026-05-06 16:14 | 44.57495 | 26.08523 | 322 ft | 8 kts | 259° |
| 2026-05-06 16:14 | 44.57453 | 26.08475 | 322 ft | 10 kts | 184° |
| 2026-05-06 16:15 | 44.57374 | 26.08484 | 322 ft | 13 kts | 174° |
| 2026-05-06 16:15 | 44.57289 | 26.08498 | 320 ft | 11 kts | 172° |
| 2026-05-06 16:15 | 44.57228 | 26.08464 | 320 ft | 10 kts | 251° |
| 2026-05-06 16:15 | 44.57221 | 26.08365 | 322 ft | 10 kts | 268° |
| 2026-05-06 16:16 | 44.57217 | 26.08269 | 322 ft | 10 kts | 265° |
| 2026-05-06 16:16 | 44.57210 | 26.08176 | 322 ft | 10 kts | 263° |
| 2026-05-06 16:16 | 44.57202 | 26.08085 | 322 ft | 9 kts | 264° |
| 2026-05-06 16:16 | 44.57196 | 26.07997 | 322 ft | 9 kts | 264° |
| 2026-05-06 16:17 | 44.57201 | 26.07943 | 322 ft | 5 kts | 314° |
| 2026-05-06 16:17 | 44.57227 | 26.07934 | 322 ft | 3 kts | 355° |
| 2026-05-06 16:17 | 44.57248 | 26.07932 | 322 ft | 3 kts | 354° |
| 2026-05-06 16:17 | 44.57253 | 26.07931 | 322 ft | 0 kts | 354° |